Time;durP1;ratioP1;P1;durP2;ratioP2;P2;SDS_P1;SDS_P2;PMS_P1;PMS_P2;Temp;Humidity;BMP_temperature;BMP_pressure;BME280_temperature;BME280_humidity;BME280_pressure;Samples;Min_cycle;Max_cycle;Signal;HPM_P1;HPM_P2
2021/11/23 00:00:23;;;;;;;9.80;6.77;;;;;;;5.79;100.00;97093.09;5044577;28;20060;-56
2021/11/23 00:02:52;;;;;;;10.23;8.07;;;;;;;5.75;100.00;97101.22;5042634;28;20490;-58
2021/11/23 00:05:21;;;;;;;11.32;7.60;;;;;;;5.88;100.00;97102.97;5043918;28;20080;-58
2021/11/23 00:07:50;;;;;;;11.30;7.07;;;;;;;5.74;100.00;97110.00;5046662;28;20053;-56
2021/11/23 00:10:18;;;;;;;9.98;7.45;;;;;;;5.61;100.00;97107.31;5044392;28;20068;-58
2021/11/23 00:12:47;;;;;;;9.65;7.13;;;;;;;5.62;100.00;97109.03;5044676;28;20072;-56
2021/11/23 00:15:34;;;;;;;10.18;7.75;;;;;;;5.77;100.00;97113.25;5018751;28;20068;-55
2021/11/23 00:18:04;;;;;;;9.48;7.18;;;;;;;5.54;100.00;97114.75;5018677;28;20061;-58
2021/11/23 00:20:32;;;;;;;12.05;7.25;;;;;;;5.76;100.00;97114.22;5018342;28;20076;-57
2021/11/23 00:23:01;;;;;;;11.27;7.40;;;;;;;5.52;100.00;97121.84;5016734;28;20087;-58
2021/11/23 00:25:30;;;;;;;10.00;7.78;;;;;;;5.43;100.00;97125.88;5027162;28;21241;-54
2021/11/23 00:27:59;;;;;;;11.18;7.60;;;;;;;5.36;100.00;97126.34;5019248;28;20061;-59
2021/11/23 00:30:29;;;;;;;10.10;7.57;;;;;;;5.48;100.00;97126.44;5021947;28;20503;-60
2021/11/23 00:33:01;;;;;;;10.35;8.13;;;;;;;5.67;100.00;97131.31;5020529;28;20729;-60
2021/11/23 00:35:30;;;;;;;9.23;7.43;;;;;;;5.47;100.00;97126.50;5021541;28;20065;-59
2021/11/23 00:37:59;;;;;;;10.65;7.47;;;;;;;5.58;100.00;97131.09;5026331;28;20085;-57
2021/11/23 00:40:27;;;;;;;10.20;7.30;;;;;;;5.56;100.00;97130.34;5044084;28;20273;-60
2021/11/23 00:42:57;;;;;;;9.35;6.97;;;;;;;5.34;100.00;97136.09;5027575;28;20080;-60
2021/11/23 00:45:25;;;;;;;11.75;7.80;;;;;;;5.81;100.00;97133.06;5023280;28;20076;-57
2021/11/23 00:47:54;;;;;;;9.57;7.05;;;;;;;5.71;100.00;97134.59;5043565;28;20075;-56
2021/11/23 00:50:24;;;;;;;9.93;6.80;;;;;;;5.46;100.00;97143.16;5043821;28;20179;-57
2021/11/23 00:52:52;;;;;;;9.27;6.38;;;;;;;5.23;100.00;97142.00;5046533;28;20132;-57
2021/11/23 00:55:20;;;;;;;14.13;7.03;;;;;;;5.04;100.00;97146.66;5043882;28;20075;-58
2021/11/23 00:57:49;;;;;;;8.95;6.65;;;;;;;5.16;100.00;97141.53;5025117;28;20184;-55
2021/11/23 01:00:18;;;;;;;8.50;6.85;;;;;;;5.15;100.00;97136.38;5032698;28;20060;-52
2021/11/23 01:02:46;;;;;;;8.80;6.80;;;;;;;5.26;100.00;97135.72;5043355;28;20069;-56
2021/11/23 01:05:15;;;;;;;10.27;6.50;;;;;;;5.04;100.00;97147.50;5040516;28;20099;-58
2021/11/23 01:07:45;;;;;;;7.97;6.80;;;;;;;4.85;100.00;97150.41;5029523;28;20046;-57
2021/11/23 01:10:13;;;;;;;9.50;7.28;;;;;;;4.88;100.00;97138.91;5023897;28;20092;-55
2021/11/23 01:12:42;;;;;;;9.68;7.10;;;;;;;4.56;100.00;97148.66;5013829;28;20092;-56
2021/11/23 01:15:10;;;;;;;9.07;6.97;;;;;;;4.88;100.00;97152.81;5021181;28;20448;-54
2021/11/23 01:17:39;;;;;;;8.55;6.57;;;;;;;4.85;100.00;97146.91;5026180;28;20095;-57
2021/11/23 01:20:10;;;;;;;9.63;6.63;;;;;;;4.96;100.00;97149.75;5029714;28;20496;-54
2021/11/23 01:22:41;;;;;;;9.98;7.35;;;;;;;4.80;100.00;97147.19;5017677;28;20665;-56
2021/11/23 01:25:11;;;;;;;8.13;6.60;;;;;;;4.56;100.00;97164.34;5040025;28;20061;-55
2021/11/23 01:27:40;;;;;;;10.05;7.28;;;;;;;4.83;100.00;97152.25;5040322;28;20088;-53
2021/11/23 01:30:10;;;;;;;9.60;6.60;;;;;;;4.63;100.00;97148.22;5043381;28;20069;-57
2021/11/23 01:32:39;;;;;;;10.15;7.13;;;;;;;4.54;100.00;97164.41;5045572;28;20162;-56
2021/11/23 01:35:09;;;;;;;11.45;7.28;;;;;;;4.75;100.00;97150.09;5038269;28;20468;-61
2021/11/23 01:37:37;;;;;;;9.97;7.33;;;;;;;4.84;100.00;97153.09;5030698;28;20071;-56
2021/11/23 01:40:07;;;;;;;10.18;7.20;;;;;;;4.71;100.00;97150.34;5043593;28;20489;-55
2021/11/23 01:42:37;;;;;;;9.03;7.13;;;;;;;4.59;100.00;97157.16;5041474;28;20106;-59
2021/11/23 01:45:07;;;;;;;9.77;7.60;;;;;;;4.40;100.00;97156.56;5044792;28;20507;-55
2021/11/23 01:47:35;;;;;;;8.38;7.00;;;;;;;4.60;100.00;97151.00;5040899;28;20075;-55
2021/11/23 01:50:04;;;;;;;11.27;8.10;;;;;;;4.32;100.00;97159.63;5042839;28;20081;-59
2021/11/23 01:52:33;;;;;;;10.25;7.22;;;;;;;4.55;100.00;97154.84;5047434;28;20076;-54
2021/11/23 01:55:04;;;;;;;9.95;7.82;;;;;;;4.56;100.00;97157.34;5045740;28;20075;-48
2021/11/23 01:57:33;;;;;;;9.18;7.00;;;;;;;4.65;100.00;97155.97;5031264;28;20076;-57
2021/11/23 02:00:04;;;;;;;10.35;8.02;;;;;;;4.69;100.00;97165.31;5052434;28;20061;-51
2021/11/23 02:02:33;;;;;;;8.93;7.05;;;;;;;4.49;100.00;97161.25;5043780;28;20041;-52
2021/11/23 02:05:01;;;;;;;10.77;8.27;;;;;;;4.27;100.00;97166.88;5027541;28;20064;-55
2021/11/23 02:07:30;;;;;;;10.23;7.78;;;;;;;4.09;100.00;97171.34;5047146;28;20088;-53
2021/11/23 02:09:58;;;;;;;10.80;8.27;;;;;;;3.86;100.00;97162.25;5030280;28;20100;-52
2021/11/23 02:12:27;;;;;;;11.48;8.20;;;;;;;3.99;100.00;97164.97;5026320;28;20091;-56
2021/11/23 02:14:56;;;;;;;12.05;7.93;;;;;;;4.08;100.00;97164.47;5026564;28;20148;-52
2021/11/23 02:17:26;;;;;;;10.65;7.93;;;;;;;4.05;100.00;97170.69;5025264;28;20073;-60
2021/11/23 02:19:55;;;;;;;11.07;8.30;;;;;;;3.64;100.00;97165.19;5028509;28;20089;-59
2021/11/23 02:22:24;;;;;;;12.07;8.68;;;;;;;3.49;100.00;97176.47;5027159;28;20089;-52
2021/11/23 02:24:52;;;;;;;11.50;7.43;;;;;;;3.60;100.00;97168.06;5022663;28;20467;-56
2021/11/23 02:27:21;;;;;;;11.30;8.07;;;;;;;3.78;100.00;97164.41;5022842;28;20069;-52
2021/11/23 02:29:49;;;;;;;12.07;8.40;;;;;;;3.92;100.00;97161.91;5025396;28;20076;-59
2021/11/23 02:32:18;;;;;;;13.88;8.30;;;;;;;3.71;100.00;97165.69;5020076;28;20081;-55
2021/11/23 02:34:46;;;;;;;10.23;7.93;;;;;;;3.88;100.00;97167.38;5027128;28;20084;-54
2021/11/23 02:37:16;;;;;;;11.75;8.13;;;;;;;3.67;100.00;97169.41;5024343;28;20092;-51
2021/11/23 02:39:45;;;;;;;12.65;8.60;;;;;;;3.83;100.00;97170.25;5025298;28;20084;-54
2021/11/23 02:42:13;;;;;;;11.68;8.07;;;;;;;4.08;100.00;97161.84;5031635;28;20093;-54
2021/11/23 02:44:42;;;;;;;10.25;7.50;;;;;;;3.85;100.00;97170.97;5043939;28;20476;-52
2021/11/23 02:47:10;;;;;;;11.32;7.78;;;;;;;4.02;100.00;97163.03;5040209;28;20088;-55
2021/11/23 02:49:39;;;;;;;11.48;8.32;;;;;;;3.72;100.00;97170.00;5044538;28;20091;-53
2021/11/23 02:52:10;;;;;;;12.23;7.88;;;;;;;3.80;100.00;97166.03;5023082;28;20084;-52
2021/11/23 02:54:40;;;;;;;13.80;8.32;;;;;;;3.66;100.00;97176.38;5022678;28;20075;-52
2021/11/23 02:57:08;;;;;;;10.23;7.87;;;;;;;3.63;100.00;97173.09;5018795;28;20065;-56
2021/11/23 02:59:36;;;;;;;11.77;8.10;;;;;;;3.51;100.00;97169.38;5019508;28;20475;-51
2021/11/23 03:02:09;;;;;;;11.88;8.27;;;;;;;3.57;100.00;97171.66;5025222;28;20103;-56
2021/11/23 03:04:38;;;;;;;11.38;8.10;;;;;;;3.71;100.00;97174.34;5027258;28;20088;-58
2021/11/23 03:07:12;;;;;;;11.52;7.28;;;;;;;3.30;100.00;97179.22;5025944;28;20080;-61
2021/11/23 03:09:42;;;;;;;13.00;8.10;;;;;;;3.30;100.00;97167.03;5039879;28;20553;-61
2021/11/23 03:12:14;;;;;;;12.90;8.48;;;;;;;3.19;100.00;97168.53;5036579;28;20080;-58
2021/11/23 03:14:43;;;;;;;11.07;8.15;;;;;;;3.31;100.00;97162.66;5024913;28;20041;-59
2021/11/23 03:17:12;;;;;;;12.32;8.32;;;;;;;3.17;100.00;97165.19;5044252;28;20095;-56
2021/11/23 03:19:41;;;;;;;12.98;8.55;;;;;;;3.00;100.00;97168.66;5027975;28;20439;-59
2021/11/23 03:22:10;;;;;;;11.60;8.30;;;;;;;3.03;100.00;97177.16;5021588;28;20098;-59
2021/11/23 03:24:39;;;;;;;10.68;8.15;;;;;;;3.11;100.00;97168.94;5042049;28;20076;-59
2021/11/23 03:27:09;;;;;;;13.90;8.80;;;;;;;3.29;100.00;97174.94;5045305;28;20079;-54
2021/11/23 03:29:38;;;;;;;15.73;8.82;;;;;;;3.14;100.00;97171.38;5045020;28;20075;-53
2021/11/23 03:32:08;;;;;;;11.77;8.73;;;;;;;3.20;100.00;97163.25;5045014;28;20080;-60
2021/11/23 03:34:38;;;;;;;12.32;8.40;;;;;;;3.43;100.00;97164.59;5027223;28;20578;-56
2021/11/23 03:37:08;;;;;;;13.43;8.20;;;;;;;3.83;100.00;97170.25;5024909;28;20087;-56
2021/11/23 03:39:37;;;;;;;15.52;8.75;;;;;;;3.79;100.00;97155.69;5036119;28;20072;-57
2021/11/23 03:42:07;;;;;;;11.18;9.02;;;;;;;3.64;100.00;97162.56;5035862;28;20076;-56
2021/11/23 03:44:38;;;;;;;13.57;8.73;;;;;;;3.96;100.00;97157.34;5013228;28;20077;-58
2021/11/23 03:47:07;;;;;;;11.75;8.90;;;;;;;4.10;100.00;97157.41;5018088;28;20538;-58
2021/11/23 03:49:37;;;;;;;12.38;8.80;;;;;;;3.85;100.00;97157.94;5027420;28;20074;-61
2021/11/23 03:52:06;;;;;;;13.63;9.07;;;;;;;3.70;100.00;97164.84;5033423;28;20061;-56
2021/11/23 03:54:35;;;;;;;12.60;9.23;;;;;;;3.48;100.00;97173.03;5031318;28;20068;-53
2021/11/23 03:57:04;;;;;;;12.52;8.93;;;;;;;3.60;100.00;97176.72;5027739;28;20072;-56
2021/11/23 03:59:33;;;;;;;14.50;8.90;;;;;;;3.30;100.00;97172.25;5023062;28;20076;-54
2021/11/23 04:02:03;;;;;;;10.93;8.35;;;;;;;3.42;100.00;97178.56;5039286;28;20076;-59
2021/11/23 04:04:32;;;;;;;12.45;8.55;;;;;;;3.45;100.00;97175.78;5026610;28;21358;-54
2021/11/23 04:07:01;;;;;;;12.68;8.40;;;;;;;3.08;100.00;97182.13;5025218;28;20571;-55
2021/11/23 04:09:29;;;;;;;10.98;8.13;;;;;;;3.29;100.00;97175.75;5024299;28;20061;-56
2021/11/23 04:11:57;;;;;;;13.70;8.10;;;;;;;3.17;100.00;97184.25;5020788;28;20560;-54
2021/11/23 04:14:26;;;;;;;10.48;7.78;;;;;;;3.11;100.00;97186.34;5021873;28;20068;-59
2021/11/23 04:16:54;;;;;;;13.63;8.82;;;;;;;2.84;100.00;97184.25;5029749;28;20088;-56
2021/11/23 04:19:24;;;;;;;13.23;8.93;;;;;;;2.96;100.00;97183.63;5027634;28;20065;-56
2021/11/23 04:21:53;;;;;;;12.00;8.25;;;;;;;2.88;100.00;97184.94;5040725;28;20069;-56
2021/11/23 04:24:21;;;;;;;12.93;8.95;;;;;;;3.09;100.00;97191.63;5035555;28;20103;-55
2021/11/23 04:26:50;;;;;;;13.00;9.13;;;;;;;3.08;100.00;97193.38;5037950;28;20068;-59
2021/11/23 04:29:18;;;;;;;17.02;9.30;;;;;;;2.98;100.00;97189.56;5032762;28;20065;-61
2021/11/23 04:31:47;;;;;;;14.93;8.50;;;;;;;3.09;100.00;97192.44;5029503;28;20076;-56
2021/11/23 04:34:15;;;;;;;12.45;8.60;;;;;;;3.03;100.00;97194.56;5042773;28;20476;-56
2021/11/23 04:36:45;;;;;;;12.95;8.77;;;;;;;3.11;100.00;97195.00;5023778;28;20712;-57
2021/11/23 04:39:13;;;;;;;12.57;8.70;;;;;;;2.94;100.00;97193.28;5028006;28;20065;-55
2021/11/23 04:41:43;;;;;;;13.32;9.07;;;;;;;2.91;100.00;97197.78;5042964;28;20073;-57
2021/11/23 04:44:11;;;;;;;13.20;8.85;;;;;;;2.82;100.00;97201.69;5025255;28;20096;-60
2021/11/23 04:46:40;;;;;;;14.23;8.73;;;;;;;2.75;100.00;97205.53;5047182;28;20099;-61
2021/11/23 04:49:08;;;;;;;13.98;9.68;;;;;;;2.72;100.00;97219.59;5048515;28;20075;-59
2021/11/23 04:51:37;;;;;;;14.15;9.13;;;;;;;2.74;100.00;97217.72;5055218;28;20064;-57
2021/11/23 04:54:07;;;;;;;12.25;8.88;;;;;;;2.66;100.00;97208.63;5048337;28;20057;-59
2021/11/23 04:56:35;;;;;;;14.07;8.25;;;;;;;2.61;100.00;97225.34;5048040;28;20080;-54
2021/11/23 04:59:03;;;;;;;14.73;9.18;;;;;;;2.52;100.00;97227.53;5034472;28;20061;-60
2021/11/23 05:01:32;;;;;;;13.75;8.80;;;;;;;2.54;100.00;97223.09;5043410;28;20141;-58
2021/11/23 05:04:00;;;;;;;16.88;9.15;;;;;;;2.55;100.00;97217.81;5031696;28;20531;-59
2021/11/23 05:06:30;;;;;;;13.90;9.18;;;;;;;2.55;100.00;97230.84;5036328;28;20464;-58
2021/11/23 05:08:58;;;;;;;12.45;8.45;;;;;;;2.46;100.00;97227.84;5038888;28;20084;-60
2021/11/23 05:11:28;;;;;;;14.05;9.15;;;;;;;2.52;100.00;97225.78;5048210;28;20061;-58
2021/11/23 05:13:59;;;;;;;11.93;8.05;;;;;;;2.55;100.00;97230.00;5049632;28;20091;-59
2021/11/23 05:16:28;;;;;;;15.02;10.10;;;;;;;2.54;100.00;97230.91;5020908;28;20570;-58
2021/11/23 05:18:56;;;;;;;12.90;8.60;;;;;;;2.59;100.00;97229.75;5020201;28;20544;-55
2021/11/23 05:21:25;;;;;;;12.65;9.02;;;;;;;2.47;100.00;97229.53;5031341;28;20072;-61
2021/11/23 05:23:53;;;;;;;12.52;8.60;;;;;;;2.65;100.00;97228.63;5026298;28;20152;-58
2021/11/23 05:26:22;;;;;;;13.13;8.90;;;;;;;2.65;100.00;97227.75;5026773;28;20106;-56
2021/11/23 05:28:52;;;;;;;12.90;8.73;;;;;;;2.70;100.00;97216.19;5034766;28;20085;-59
2021/11/23 05:31:20;;;;;;;13.30;8.97;;;;;;;2.67;100.00;97231.97;5047135;28;20076;-59
2021/11/23 05:33:48;;;;;;;13.18;8.85;;;;;;;2.66;100.00;97230.31;5047242;28;20494;-58
2021/11/23 05:36:17;;;;;;;16.08;8.98;;;;;;;2.75;100.00;97231.59;5046926;28;20071;-58
2021/11/23 05:38:45;;;;;;;13.43;8.60;;;;;;;2.82;100.00;97238.16;5047533;28;20100;-59
2021/11/23 05:41:14;;;;;;;12.85;9.00;;;;;;;2.93;100.00;97235.88;5047595;28;20499;-58
2021/11/23 05:43:42;;;;;;;12.63;8.80;;;;;;;2.86;100.00;97234.50;5049800;28;20485;-61
2021/11/23 05:46:14;;;;;;;13.20;8.50;;;;;;;2.96;100.00;97227.91;5047258;28;20077;-60
2021/11/23 05:48:42;;;;;;;12.88;9.10;;;;;;;2.95;100.00;97223.59;5047164;28;20527;-59
2021/11/23 05:51:12;;;;;;;13.95;9.38;;;;;;;2.90;100.00;97228.22;5046699;28;20065;-61
2021/11/23 05:53:41;;;;;;;12.70;8.77;;;;;;;3.09;100.00;97225.50;5041295;28;20073;-58
2021/11/23 05:56:09;;;;;;;12.68;8.50;;;;;;;3.25;100.00;97225.53;5047502;28;20123;-57
2021/11/23 05:58:37;;;;;;;14.10;9.07;;;;;;;3.14;100.00;97228.72;5049827;28;20724;-55
2021/11/23 06:01:07;;;;;;;12.75;9.32;;;;;;;3.19;100.00;97226.69;5047592;28;20061;-55
2021/11/23 06:03:37;;;;;;;15.27;9.48;;;;;;;3.05;100.00;97224.81;5046587;28;20478;-58
2021/11/23 06:06:05;;;;;;;13.55;9.07;;;;;;;2.75;100.00;97228.97;5050829;28;20060;-59
2021/11/23 06:08:34;;;;;;;12.68;9.30;;;;;;;2.98;100.00;97227.81;5046311;28;20067;-56
2021/11/23 06:11:02;;;;;;;14.73;9.93;;;;;;;2.93;100.00;97230.66;5035439;28;20100;-60
2021/11/23 06:13:31;;;;;;;13.57;9.88;;;;;;;2.43;100.00;97241.84;5048988;28;20076;-59
2021/11/23 06:15:59;;;;;;;17.20;9.57;;;;;;;2.57;100.00;97241.16;5049011;28;20125;-58
2021/11/23 06:18:28;;;;;;;12.15;8.93;;;;;;;2.52;100.00;97244.00;5030339;28;20270;-57
2021/11/23 06:20:57;;;;;;;14.70;9.60;;;;;;;2.53;100.00;97242.25;5034952;28;20095;-61
2021/11/23 06:23:26;;;;;;;14.65;9.40;;;;;;;2.49;100.00;97253.72;5034528;28;20099;-59
2021/11/23 06:25:57;;;;;;;14.98;9.32;;;;;;;2.46;100.00;97244.31;5020956;28;20481;-58
2021/11/23 06:28:26;;;;;;;14.45;8.73;;;;;;;2.43;100.00;97251.41;5012369;28;20535;-57
2021/11/23 06:30:54;;;;;;;14.20;9.30;;;;;;;2.28;100.00;97250.41;5041152;28;20073;-58
2021/11/23 06:33:23;;;;;;;12.18;8.77;;;;;;;2.43;100.00;97252.25;5046658;28;20593;-56
2021/11/23 06:35:51;;;;;;;16.10;9.77;;;;;;;2.30;100.00;97257.22;5053161;28;20095;-59
2021/11/23 06:38:21;;;;;;;13.75;9.30;;;;;;;2.21;100.00;97257.66;5046402;28;20087;-56
2021/11/23 06:40:49;;;;;;;14.27;9.90;;;;;;;2.30;100.00;97257.22;5052984;28;20068;-60
2021/11/23 06:43:18;;;;;;;15.13;9.60;;;;;;;2.29;100.00;97262.50;5046303;28;20479;-54
2021/11/23 06:45:46;;;;;;;14.43;9.32;;;;;;;2.46;100.00;97272.94;5046211;28;20068;-60
2021/11/23 06:48:15;;;;;;;13.45;9.73;;;;;;;2.52;100.00;97277.00;5037920;28;20467;-59
2021/11/23 06:50:44;;;;;;;15.77;9.90;;;;;;;2.49;100.00;97287.56;5030335;28;20618;-59
2021/11/23 06:53:13;;;;;;;16.52;10.43;;;;;;;2.29;100.00;97283.31;5034351;28;20079;-60
2021/11/23 06:55:43;;;;;;;15.30;9.75;;;;;;;2.16;100.00;97290.84;5038524;28;20083;-56
2021/11/23 06:58:12;;;;;;;15.27;10.18;;;;;;;2.22;100.00;97295.78;5027579;28;20076;-61
2021/11/23 07:00:40;;;;;;;15.68;9.82;;;;;;;2.31;100.00;97304.94;5028761;28;20064;-63
2021/11/23 07:03:09;;;;;;;14.55;9.52;;;;;;;2.19;100.00;97305.50;5019706;28;20065;-56
2021/11/23 07:05:38;;;;;;;13.73;9.43;;;;;;;2.12;100.00;97317.94;5016608;28;20068;-60
2021/11/23 07:08:25;;;;;;;17.48;10.02;;;;;;;2.35;100.00;97315.09;5028022;28;20073;-59
2021/11/23 07:10:55;;;;;;;14.35;9.88;;;;;;;2.25;100.00;97318.22;5029046;28;20077;-60
2021/11/23 07:13:24;;;;;;;13.93;9.90;;;;;;;2.29;100.00;97320.59;5045819;28;20482;-56
2021/11/23 07:15:53;;;;;;;13.60;9.23;;;;;;;2.51;100.00;97323.03;5046172;28;20076;-57
2021/11/23 07:18:21;;;;;;;12.88;9.10;;;;;;;2.53;100.00;97328.16;5046155;28;20068;-58
2021/11/23 07:20:50;;;;;;;13.90;9.80;;;;;;;2.30;100.00;97329.25;5045537;28;20077;-54
2021/11/23 07:23:18;;;;;;;15.68;9.20;;;;;;;2.39;100.00;97331.41;5041341;28;20081;-60
2021/11/23 07:25:46;;;;;;;13.98;9.95;;;;;;;2.35;100.00;97324.69;5048043;28;20077;-58
2021/11/23 07:28:16;;;;;;;13.13;8.95;;;;;;;2.54;100.00;97327.22;5045408;28;20577;-57
2021/11/23 07:30:46;;;;;;;16.73;10.77;;;;;;;2.58;100.00;97323.56;5031833;28;20064;-55
2021/11/23 07:33:14;;;;;;;11.65;8.90;;;;;;;2.80;100.00;97323.38;5028343;28;20071;-59
2021/11/23 07:35:44;;;;;;;15.13;9.75;;;;;;;2.70;100.00;97330.78;5034490;28;20072;-60
2021/11/23 07:38:13;;;;;;;15.57;9.90;;;;;;;2.72;100.00;97330.69;5026492;28;20417;-60
2021/11/23 07:40:41;;;;;;;12.80;9.13;;;;;;;2.73;100.00;97332.41;5033965;28;20581;-59
2021/11/23 07:43:09;;;;;;;17.58;9.85;;;;;;;2.79;100.00;97334.72;5025599;28;20074;-59
2021/11/23 07:45:41;;;;;;;14.10;10.15;;;;;;;2.64;100.00;97336.28;5014814;28;20065;-58
2021/11/23 07:48:10;;;;;;;;;;;;;;;2.65;100.00;97329.31;5032603;28;20072;-59
2021/11/23 07:50:39;;;;;;;14.82;9.85;;;;;;;2.69;100.00;97325.66;5028508;28;19961;-54
2021/11/23 07:53:09;;;;;;;12.57;9.50;;;;;;;3.00;100.00;97325.84;5016073;28;20088;-57
2021/11/23 07:55:38;;;;;;;15.73;10.68;;;;;;;2.80;100.00;97323.38;5031507;28;20150;-59
2021/11/23 07:58:06;;;;;;;14.50;10.10;;;;;;;3.13;100.00;97326.03;5021539;28;20080;-61
2021/11/23 08:00:34;;;;;;;14.15;9.45;;;;;;;3.24;100.00;97322.91;5024538;28;20108;-58
2021/11/23 08:03:04;;;;;;;14.18;9.73;;;;;;;3.32;100.00;97323.34;5024553;28;20080;-58
2021/11/23 08:05:34;;;;;;;15.20;9.75;;;;;;;3.39;100.00;97327.31;5025717;28;20557;-55
2021/11/23 08:08:03;;;;;;;16.17;9.60;;;;;;;3.80;100.00;97330.38;5025748;28;20085;-56
2021/11/23 08:10:32;;;;;;;14.70;10.20;;;;;;;3.61;100.00;97328.81;5047390;28;20083;-57
2021/11/23 08:13:01;;;;;;;13.93;9.73;;;;;;;3.46;100.00;97341.72;5045926;28;20067;-56
2021/11/23 08:15:30;;;;;;;15.95;10.85;;;;;;;3.50;100.00;97347.63;5050176;28;20087;-59
2021/11/23 08:17:58;;;;;;;14.30;10.50;;;;;;;3.19;100.00;97343.13;5038472;28;20061;-60
2021/11/23 08:20:28;;;;;;;15.07;11.23;;;;;;;2.77;100.00;97349.56;5028981;28;20065;-59
2021/11/23 08:22:57;;;;;;;14.57;9.73;;;;;;;3.35;100.00;97354.47;5031468;28;20045;-58
2021/11/23 08:25:25;;;;;;;14.25;10.73;;;;;;;3.57;100.00;97352.44;5035466;28;20068;-56
2021/11/23 08:27:54;;;;;;;14.93;10.07;;;;;;;3.53;100.00;97350.91;5045092;28;20744;-59
2021/11/23 08:30:23;;;;;;;15.73;10.98;;;;;;;3.44;100.00;97348.81;5042566;28;20622;-58
2021/11/23 08:32:52;;;;;;;17.92;11.32;;;;;;;3.85;100.00;97340.56;5048852;28;20064;-54
2021/11/23 08:35:20;;;;;;;15.60;10.45;;;;;;;3.59;100.00;97351.53;5043031;28;20367;-58
2021/11/23 08:37:50;;;;;;;17.67;11.10;;;;;;;3.67;100.00;97338.94;5050850;28;20527;-57
2021/11/23 08:40:18;;;;;;;16.67;10.38;;;;;;;3.69;100.00;97345.75;5048620;28;20072;-59
2021/11/23 08:42:47;;;;;;;13.85;9.90;;;;;;;3.75;100.00;97342.84;5048632;28;20470;-55
2021/11/23 08:45:15;;;;;;;14.63;10.65;;;;;;;3.71;100.00;97353.50;5043928;28;20073;-58
2021/11/23 08:47:44;;;;;;;14.82;10.23;;;;;;;3.69;100.00;97356.19;5041735;28;20072;-59
2021/11/23 08:50:13;;;;;;;13.45;9.25;;;;;;;3.96;100.00;97347.84;5042580;28;20100;-62
2021/11/23 08:52:41;;;;;;;12.07;9.80;;;;;;;3.50;100.00;97358.91;5050201;28;20080;-58
2021/11/23 08:55:12;;;;;;;12.18;9.13;;;;;;;3.80;100.00;97347.81;5048658;28;20523;-56
2021/11/23 08:57:40;;;;;;;12.70;9.40;;;;;;;3.97;100.00;97352.13;5048056;28;20072;-58
2021/11/23 09:00:15;;;;;;;12.98;9.07;;;;;;;3.88;100.00;97353.44;5048258;28;20075;-57
2021/11/23 09:02:46;;;;;;;13.48;9.75;;;;;;;4.22;100.00;97349.03;5048159;28;20068;-60
2021/11/23 09:05:15;;;;;;;10.80;8.80;;;;;;;4.29;100.00;97358.22;5048179;28;20084;-57
2021/11/23 09:07:44;;;;;;;13.27;9.13;;;;;;;4.45;100.00;97355.63;5050623;28;20049;-62
2021/11/23 09:10:19;;;;;;;15.45;9.40;;;;;;;4.09;100.00;97361.06;5048483;28;20065;-58
2021/11/23 09:12:48;;;;;;;13.60;10.95;;;;;;;3.91;100.00;97363.72;5047786;28;20455;-61
2021/11/23 09:15:18;;;;;;;13.23;9.98;;;;;;;4.20;100.00;97372.63;5048778;28;20072;-59
2021/11/23 09:17:47;;;;;;;12.52;9.65;;;;;;;4.61;100.00;97373.88;5049817;28;20044;-56
2021/11/23 09:20:18;;;;;;;14.07;9.88;;;;;;;4.48;100.00;97374.56;5048361;28;20092;-58
2021/11/23 09:22:47;;;;;;;12.48;9.60;;;;;;;4.66;100.00;97366.63;5049954;28;20590;-58
2021/11/23 09:25:18;;;;;;;13.43;9.93;;;;;;;4.42;100.00;97366.22;5047506;28;20065;-56
2021/11/23 09:27:46;;;;;;;;;;;;;;;4.52;100.00;97370.84;5048800;28;20295;-57
2021/11/23 09:30:15;;;;;;;13.00;9.77;;;;;;;4.75;100.00;97376.59;5047959;28;19963;-59
2021/11/23 09:32:47;;;;;;;13.15;9.25;;;;;;;4.79;100.00;97375.47;5047707;28;20068;-55
2021/11/23 09:35:16;;;;;;;14.45;10.05;;;;;;;4.68;100.00;97370.84;5047452;28;20615;-57
2021/11/23 09:37:44;;;;;;;13.65;9.32;;;;;;;5.19;100.00;97371.41;5043604;28;20163;-55
2021/11/23 09:40:12;;;;;;;15.30;9.65;;;;;;;5.17;100.00;97367.22;5047536;28;20065;-56
2021/11/23 09:42:42;;;;;;;13.10;10.57;;;;;;;4.93;100.00;97367.69;5047014;28;20061;-54
2021/11/23 09:45:11;;;;;;;13.82;9.07;;;;;;;4.74;100.00;97362.66;5047804;28;20087;-55
2021/11/23 09:47:40;;;;;;;11.88;9.05;;;;;;;5.08;100.00;97359.91;5047671;28;20087;-56
2021/11/23 09:50:09;;;;;;;14.27;10.48;;;;;;;5.11;100.00;97360.56;5047492;28;20081;-55
2021/11/23 09:52:38;;;;;;;11.38;9.05;;;;;;;5.29;100.00;97360.41;5049787;28;20073;-56
2021/11/23 09:55:07;;;;;;;11.90;10.05;;;;;;;5.12;100.00;97366.63;5046752;28;20096;-54
2021/11/23 09:57:35;;;;;;;12.77;9.80;;;;;;;5.17;100.00;97365.44;5046682;28;20069;-57
2021/11/23 10:00:23;;;;;;;11.98;9.80;;;;;;;5.09;100.00;97366.81;5038606;28;20778;-57
2021/11/23 10:02:53;;;;;;;15.25;9.73;;;;;;;5.45;100.00;97356.81;5033992;28;20041;-55
2021/11/23 10:05:22;;;;;;;16.13;9.55;;;;;;;4.71;100.00;97351.53;5047115;28;20115;-55
2021/11/23 10:07:51;;;;;;;12.02;9.73;;;;;;;5.15;100.00;97349.00;5049751;28;20593;-56
2021/11/23 10:10:24;;;;;;;11.93;9.10;;;;;;;5.30;100.00;97342.03;5033773;28;20100;-51
2021/11/23 10:12:54;;;;;;;11.98;9.52;;;;;;;5.60;100.00;97346.38;5043101;28;20048;-57
2021/11/23 10:15:27;;;;;;;13.60;9.75;;;;;;;5.60;100.00;97341.97;5046801;28;20071;-58
2021/11/23 10:17:56;;;;;;;17.58;10.00;;;;;;;5.52;100.00;97341.59;5046774;28;20065;-55
2021/11/23 10:20:27;;;;;;;9.45;7.55;;;;;;;5.61;100.00;97333.22;5025797;28;20061;-56
2021/11/23 10:22:57;;;;;;;11.55;8.90;;;;;;;5.81;100.00;97331.97;5048772;28;20548;-55
2021/11/23 10:25:31;;;;;;;11.77;9.27;;;;;;;5.86;100.00;97326.47;5038906;28;20069;-58
2021/11/23 10:27:59;;;;;;;11.60;9.63;;;;;;;5.56;100.00;97342.25;5039945;28;20068;-56
2021/11/23 10:30:29;;;;;;;12.75;10.07;;;;;;;5.34;100.00;97338.31;5047028;28;20072;-56
2021/11/23 10:32:58;;;;;;;10.95;9.00;;;;;;;5.58;100.00;97350.88;5045878;28;20105;-56
2021/11/23 10:35:27;;;;;;;11.68;9.25;;;;;;;5.92;100.00;97334.84;5039978;28;20060;-56
2021/11/23 10:37:56;;;;;;;11.70;9.15;;;;;;;5.81;100.00;97337.22;5046355;28;20550;-54
2021/11/23 10:40:27;;;;;;;13.25;10.55;;;;;;;5.64;100.00;97342.63;5040114;28;20083;-57
2021/11/23 10:42:58;;;;;;;12.43;9.40;;;;;;;6.15;100.00;97335.16;5045312;28;20071;-55
2021/11/23 10:45:28;;;;;;;14.05;10.07;;;;;;;6.28;100.00;97327.41;5046288;28;20052;-59
2021/11/23 10:47:57;;;;;;;12.70;9.38;;;;;;;6.17;100.00;97333.31;5035415;28;20061;-55
2021/11/23 10:50:25;;;;;;;10.85;9.20;;;;;;;6.38;100.00;97331.94;5043421;28;20062;-53
2021/11/23 10:52:54;;;;;;;15.57;8.88;;;;;;;5.95;100.00;97328.53;5048325;28;20095;-55
2021/11/23 10:55:28;;;;;;;12.75;9.32;;;;;;;6.33;100.00;97326.19;5064330;28;20513;-57
2021/11/23 10:57:58;;;;;;;11.52;9.13;;;;;;;6.18;100.00;97322.72;5041759;28;20061;-57
2021/11/23 11:00:30;;;;;;;11.10;9.48;;;;;;;6.12;100.00;97327.50;5031868;28;20072;-56
2021/11/23 11:03:01;;;;;;;11.90;9.18;;;;;;;6.18;100.00;97316.66;5037167;28;20077;-56
2021/11/23 11:05:32;;;;;;;11.60;9.25;;;;;;;6.62;100.00;97318.22;5044989;28;20448;-54
2021/11/23 11:08:01;;;;;;;11.32;8.90;;;;;;;6.52;100.00;97314.50;5041505;28;20068;-59
2021/11/23 11:10:31;;;;;;;11.10;9.40;;;;;;;6.53;100.00;97316.19;5045962;28;20068;-55
2021/11/23 11:13:02;;;;;;;12.85;9.50;;;;;;;6.54;100.00;97315.28;5045388;28;20519;-57
2021/11/23 11:15:35;;;;;;;12.57;9.68;;;;;;;6.63;100.00;97306.78;5046195;28;20091;-51
2021/11/23 11:18:09;;;;;;;10.98;9.15;;;;;;;6.53;100.00;97313.56;5045414;28;20118;-59
2021/11/23 11:20:40;;;;;;;14.98;9.18;;;;;;;6.97;100.00;97308.06;5045448;28;20107;-56
2021/11/23 11:23:12;;;;;;;10.98;8.95;;;;;;;6.88;100.00;97304.28;5039170;28;20077;-55
2021/11/23 11:25:58;;;;;;;12.05;9.38;;;;;;;7.09;100.00;97303.78;5048039;28;20073;-54
2021/11/23 11:28:42;;;;;;;13.18;9.25;;;;;;;6.43;100.00;97308.06;5038900;28;21403;-56
2021/11/23 11:34:22;;;;;;;12.35;9.45;;;;;;;6.37;100.00;97298.00;5081435;27;20609;-59
2021/11/23 11:37:00;;;;;;;12.32;9.35;;;;;;;7.08;100.00;97297.69;5074051;28;20062;-59
2021/11/23 11:40:02;;;;;;;13.55;9.43;;;;;;;7.22;100.00;97291.50;5074566;28;20031;-57